Time;durP1;ratioP1;P1;durP2;ratioP2;P2;SDS_P1;SDS_P2;PMS_P1;PMS_P2;Temp;Humidity;BMP_temperature;BMP_pressure;BME280_temperature;BME280_humidity;BME280_pressure;Samples;Min_cycle;Max_cycle;Signal;HPM_P1;HPM_P2
2022/05/01 00:00:48;;;;;;;;;;;8.90;99.90;;;;;;5076220;28;19969;-83
2022/05/01 00:03:34;;;;;;;;;;;8.80;99.90;;;;;;5076429;28;19930;-83
2022/05/01 00:06:00;;;;;;;;;;;8.80;99.90;;;;;;5076284;28;19919;-83
2022/05/01 00:08:25;;;;;;;;;;;8.80;99.90;;;;;;5059500;28;19936;-84
2022/05/01 00:10:51;;;;;;;;;;;8.70;99.90;;;;;;5059647;28;19912;-83
2022/05/01 00:13:16;;;;;;;;;;;8.70;99.90;;;;;;5050145;28;19916;-83
2022/05/01 00:15:42;;;;;;;;;;;8.70;99.90;;;;;;5058975;28;19977;-83
2022/05/01 00:18:08;;;;;;;;;;;8.70;99.90;;;;;;5058829;28;19920;-84
2022/05/01 00:20:33;;;;;;;;;;;8.70;99.90;;;;;;5061032;28;19924;-83
2022/05/01 00:22:59;;;;;;;;;;;8.70;99.90;;;;;;5077805;28;20344;-84
2022/05/01 00:25:25;;;;;;;;;;;8.60;99.90;;;;;;5061685;28;19970;-84
2022/05/01 00:27:51;;;;;;;;;;;8.60;99.90;;;;;;5071240;28;19917;-84
2022/05/01 00:30:16;;;;;;;;;;;8.60;99.90;;;;;;5041349;28;19920;-84
2022/05/01 00:38:10;;;;;;;;;;;8.50;99.90;;;;;;5080948;28;19961;-84
2022/05/01 00:40:36;;;;;;;;;;;8.40;99.90;;;;;;5062233;28;20377;-84
2022/05/01 00:43:05;;;;;;;;;;;8.30;99.90;;;;;;5045514;28;19927;-84
2022/05/01 00:45:31;;;;;;;;;;;8.20;99.90;;;;;;5079076;28;19912;-84
2022/05/01 00:47:57;;;;;;;;;;;8.10;99.90;;;;;;5078796;28;20286;-84
2022/05/01 00:50:22;;;;;;;;;;;8.10;99.90;;;;;;5077737;28;19912;-84
2022/05/01 00:52:48;;;;;;;;;;;8.00;99.90;;;;;;5078850;28;19912;-84
2022/05/01 00:55:15;;;;;;;;;;;7.90;99.90;;;;;;5078549;28;19922;-84
2022/05/01 00:57:41;;;;;;;;;;;7.80;99.90;;;;;;5079594;28;19969;-84
2022/05/01 01:00:07;;;;;;;;;;;7.70;99.90;;;;;;5078859;22;19932;-83
2022/05/01 01:02:33;;;;;;;;;;;7.70;99.90;;;;;;5052856;28;19921;-83
2022/05/01 01:04:58;;;;;;;;;;;7.60;99.90;;;;;;5028769;28;19921;-83
2022/05/01 01:07:27;;;;;;;;;;;7.60;99.90;;;;;;5040791;28;19921;-83
2022/05/01 01:09:53;;;;;;;;;;;7.50;99.90;;;;;;5015263;28;20079;-83
2022/05/01 01:15:09;;;;;;;;;;;7.40;99.90;;;;;;5053560;28;19959;-84
2022/05/01 01:17:42;;;;;;;;;;;7.30;99.90;;;;;;5030012;28;19921;-83
2022/05/01 01:20:08;;;;;;;;;;;7.30;99.90;;;;;;5015435;28;19917;-84
2022/05/01 01:22:36;;;;;;;;;;;7.30;99.90;;;;;;5023822;28;19943;-84
2022/05/01 01:25:02;;;;;;;;;;;7.30;99.90;;;;;;5015267;28;19936;-84
2022/05/01 01:27:27;;;;;;;;;;;7.40;99.90;;;;;;5034322;28;19948;-84
2022/05/01 01:32:39;;;;;;;;;;;7.50;99.90;;;;;;5065644;28;19923;-84
2022/05/01 01:35:06;;;;;;;;;;;7.50;99.90;;;;;;5003370;28;19928;-84
2022/05/01 01:37:33;;;;;;;;;;;7.50;99.90;;;;;;5032796;28;19913;-84
2022/05/01 01:39:59;;;;;;;;;;;7.50;99.90;;;;;;5048029;28;19921;-84
2022/05/01 01:42:29;;;;;;;;;;;7.40;99.90;;;;;;5014794;28;19924;-84
2022/05/01 01:44:54;;;;;;;;;;;7.50;99.90;;;;;;5023397;28;20431;-84
2022/05/01 01:47:20;;;;;;;;;;;7.50;99.90;;;;;;5008242;28;20008;-84
2022/05/01 01:49:45;;;;;;;;;;;7.50;99.90;;;;;;5018080;28;20284;-84
2022/05/01 01:52:11;;;;;;;;;;;7.50;99.90;;;;;;5008522;28;20286;-84
2022/05/01 01:54:36;;;;;;;;;;;7.50;99.90;;;;;;5016774;28;19916;-84
2022/05/01 01:57:02;;;;;;;;;;;7.50;99.90;;;;;;5034575;28;19908;-84
2022/05/01 01:59:28;;;;;;;;;;;7.50;99.90;;;;;;5028355;28;19924;-84
2022/05/01 02:01:54;;;;;;;;;;;7.50;99.90;;;;;;5015604;28;19921;-83
2022/05/01 02:04:19;;;;;;;;;;;7.50;99.90;;;;;;5017508;28;19913;-84
2022/05/01 02:06:45;;;;;;;;;;;7.50;99.90;;;;;;5017195;28;19921;-84
2022/05/01 02:09:12;;;;;;;;;;;7.50;99.90;;;;;;5022345;28;20391;-84
2022/05/01 02:11:37;;;;;;;;;;;7.60;99.90;;;;;;5033477;28;19916;-84
2022/05/01 02:14:05;;;;;;;;;;;7.50;99.90;;;;;;5034535;28;20300;-84
2022/05/01 02:16:30;;;;;;;;;;;7.60;99.90;;;;;;5031978;28;19940;-84
2022/05/01 02:18:57;;;;;;;;;;;7.60;99.90;;;;;;5017335;28;19964;-84
2022/05/01 02:21:35;;;;;;;;;;;7.60;99.90;;;;;;5010434;28;19925;-84
2022/05/01 02:24:05;;;;;;;;;;;7.60;99.90;;;;;;5004463;28;19917;-84
2022/05/01 02:26:30;;;;;;;;;;;7.60;99.90;;;;;;4998171;28;19929;-84
2022/05/01 02:28:57;;;;;;;;;;;7.60;99.90;;;;;;5013561;28;19913;-84
2022/05/01 02:31:23;;;;;;;;;;;7.70;99.90;;;;;;5024367;28;19956;-84
2022/05/01 02:33:48;;;;;;;;;;;7.70;99.90;;;;;;4997478;28;19949;-84
2022/05/01 02:36:16;;;;;;;;;;;7.70;99.90;;;;;;4999910;28;20463;-84
2022/05/01 02:38:42;;;;;;;;;;;7.70;99.90;;;;;;5013719;28;19915;-84
2022/05/01 02:41:07;;;;;;;;;;;7.70;99.90;;;;;;5013064;28;20361;-84
2022/05/01 02:43:33;;;;;;;;;;;7.70;99.90;;;;;;5017088;28;20528;-84
2022/05/01 02:45:58;;;;;;;;;;;7.60;99.90;;;;;;5012017;28;19956;-84
2022/05/01 02:48:24;;;;;;;;;;;7.60;99.90;;;;;;4998190;28;20423;-84
2022/05/01 02:50:49;;;;;;;;;;;7.70;99.90;;;;;;5025731;28;20011;-84
2022/05/01 02:53:15;;;;;;;;;;;7.60;99.90;;;;;;5011562;28;19924;-84
2022/05/01 02:55:40;;;;;;;;;;;7.60;99.90;;;;;;5000940;28;19917;-84
2022/05/01 02:58:06;;;;;;;;;;;7.60;99.90;;;;;;5002082;28;19924;-84
2022/05/01 03:00:33;;;;;;;;;;;7.60;99.90;;;;;;5004970;28;19947;-84
2022/05/01 03:02:59;;;;;;;;;;;7.60;99.90;;;;;;5039377;28;19920;-84
2022/05/01 03:05:24;;;;;;;;;;;7.50;99.90;;;;;;5030710;28;19928;-84
2022/05/01 03:07:50;;;;;;;;;;;7.50;99.90;;;;;;5031395;28;19928;-84
2022/05/01 03:10:15;;;;;;;;;;;7.40;99.90;;;;;;5031962;28;19963;-84
2022/05/01 03:12:41;;;;;;;;;;;7.40;99.90;;;;;;5023187;28;19917;-84
2022/05/01 03:15:07;;;;;;;;;;;7.30;99.90;;;;;;5016272;28;20027;-84
2022/05/01 03:23:01;;;;;;;;;;;7.20;99.90;;;;;;5070746;28;19923;-84
2022/05/01 03:25:27;;;;;;;;;;;7.10;99.90;;;;;;5025430;28;19921;-84
2022/05/01 03:27:56;;;;;;;;;;;7.10;99.90;;;;;;5032527;28;20003;-84
2022/05/01 03:30:22;;;;;;;;;;;7.00;99.90;;;;;;5038160;28;19936;-84
2022/05/01 03:32:48;;;;;;;;;;;7.00;99.90;;;;;;5054631;28;20363;-84
2022/05/01 03:35:14;;;;;;;;;;;6.90;99.90;;;;;;5058146;28;19972;-84
2022/05/01 03:37:41;;;;;;;;;;;6.90;99.90;;;;;;5056818;28;19912;-84
2022/05/01 03:40:07;;;;;;;;;;;6.80;99.90;;;;;;5036346;28;19912;-83
2022/05/01 03:42:32;;;;;;;;;;;6.80;99.90;;;;;;5017229;28;19987;-84
2022/05/01 03:44:58;;;;;;;;;;;6.80;99.90;;;;;;5033134;28;19912;-84
2022/05/01 03:47:23;;;;;;;;;;;6.80;99.90;;;;;;5021044;28;19920;-84
2022/05/01 03:49:49;;;;;;;;;;;6.80;99.90;;;;;;5018715;28;19963;-84
2022/05/01 03:52:14;;;;;;;;;;;6.80;99.90;;;;;;5025308;28;20314;-84
2022/05/01 03:54:40;;;;;;;;;;;6.80;99.90;;;;;;5020631;28;19916;-84
2022/05/01 03:57:05;;;;;;;;;;;6.80;99.90;;;;;;5022672;28;19924;-84
2022/05/01 03:59:31;;;;;;;;;;;6.70;99.90;;;;;;5018488;28;19932;-84
2022/05/01 04:01:56;;;;;;;;;;;6.70;99.90;;;;;;5033479;28;19925;-84
2022/05/01 04:04:22;;;;;;;;;;;6.70;99.90;;;;;;4998117;28;19923;-84
2022/05/01 04:06:48;;;;;;;;;;;6.70;99.90;;;;;;5016440;28;19912;-83
2022/05/01 04:09:13;;;;;;;;;;;6.60;99.90;;;;;;5001418;28;19956;-83
2022/05/01 04:11:38;;;;;;;;;;;6.60;99.90;;;;;;5015155;28;19924;-83
2022/05/01 04:14:06;;;;;;;;;;;6.60;99.90;;;;;;4996687;28;19920;-83
2022/05/01 04:16:32;;;;;;;;;;;6.60;99.90;;;;;;5014214;28;20007;-84
2022/05/01 04:18:57;;;;;;;;;;;6.60;99.90;;;;;;5030501;28;20336;-84
2022/05/01 04:21:23;;;;;;;;;;;6.60;99.90;;;;;;5012490;28;19913;-83
2022/05/01 04:23:49;;;;;;;;;;;6.60;99.90;;;;;;5031437;28;20445;-84
2022/05/01 04:26:14;;;;;;;;;;;6.70;99.90;;;;;;5027205;28;20388;-84
2022/05/01 04:29:36;;;;;;;;;;;6.70;99.90;;;;;;5015851;28;20384;-84
2022/05/01 04:31:27;;;;;;;;;;;6.70;99.90;;;;;;5046642;28;20379;-84
2022/05/01 04:33:53;;;;;;;;;;;6.80;99.90;;;;;;5030087;28;19921;-84
2022/05/01 04:36:18;;;;;;;;;;;6.80;99.90;;;;;;5000261;28;20356;-84
2022/05/01 04:38:44;;;;;;;;;;;6.80;99.90;;;;;;5016766;28;19917;-84
2022/05/01 04:41:10;;;;;;;;;;;6.90;99.90;;;;;;5000211;28;19917;-83
2022/05/01 04:43:36;;;;;;;;;;;6.90;99.90;;;;;;5025134;28;19920;-84
2022/05/01 04:46:02;;;;;;;;;;;7.00;99.90;;;;;;5016439;28;20383;-83
2022/05/01 04:48:27;;;;;;;;;;;7.00;99.90;;;;;;5023590;28;19920;-84
2022/05/01 04:50:53;;;;;;;;;;;7.10;99.90;;;;;;4998777;28;19925;-84
2022/05/01 04:53:19;;;;;;;;;;;7.20;99.90;;;;;;5037923;28;19917;-84
2022/05/01 04:55:46;;;;;;;;;;;7.20;99.90;;;;;;5019484;28;19921;-84
2022/05/01 04:58:12;;;;;;;;;;;7.30;99.90;;;;;;5019341;28;20055;-84
2022/05/01 05:00:38;;;;;;;;;;;7.30;99.90;;;;;;4998980;28;19956;-84
2022/05/01 05:03:04;;;;;;;;;;;7.30;99.90;;;;;;5034897;28;19917;-84
2022/05/01 05:05:31;;;;;;;;;;;7.30;99.90;;;;;;5021029;28;19982;-84
2022/05/01 05:09:53;;;;;;;;;;;7.40;99.90;;;;;;5017548;28;19913;-83
2022/05/01 05:10:45;;;;;;;;;;;7.40;99.90;;;;;;5031755;28;19944;-84
2022/05/01 05:13:11;;;;;;;;;;;7.50;99.90;;;;;;5018835;28;19921;-84
2022/05/01 05:15:36;;;;;;;;;;;7.50;99.90;;;;;;5000229;28;20372;-84
2022/05/01 05:18:02;;;;;;;;;;;7.50;99.90;;;;;;5013126;28;19913;-84
2022/05/01 05:20:27;;;;;;;;;;;7.50;99.90;;;;;;5042693;28;20398;-84
2022/05/01 05:22:53;;;;;;;;;;;7.60;99.90;;;;;;4999722;28;19928;-84
2022/05/01 05:25:20;;;;;;;;;;;7.60;99.90;;;;;;5042239;28;19920;-84
2022/05/01 05:27:47;;;;;;;;;;;7.60;99.90;;;;;;5011560;28;19913;-84
2022/05/01 05:30:13;;;;;;;;;;;7.60;99.90;;;;;;5033336;28;19936;-84
2022/05/01 05:32:39;;;;;;;;;;;7.70;99.90;;;;;;5012587;28;19913;-84
2022/05/01 05:35:05;;;;;;;;;;;7.70;99.90;;;;;;5030460;28;19928;-85
2022/05/01 05:37:31;;;;;;;;;;;7.70;99.90;;;;;;5023999;28;19928;-85
2022/05/01 05:39:57;;;;;;;;;;;7.80;99.90;;;;;;5019076;28;19919;-84
2022/05/01 05:42:22;;;;;;;;;;;7.80;99.90;;;;;;5022733;28;20000;-89
2022/05/01 05:44:48;;;;;;;;;;;7.80;99.90;;;;;;5018409;28;19916;-83
2022/05/01 05:47:20;;;;;;;;;;;7.80;99.90;;;;;;5015742;28;19917;-89
2022/05/01 05:49:45;;;;;;;;;;;7.80;99.90;;;;;;5022324;28;20433;-88
2022/05/01 05:52:11;;;;;;;;;;;7.80;99.90;;;;;;5003171;28;19921;-88
2022/05/01 05:54:37;;;;;;;;;;;7.90;99.90;;;;;;4999725;28;19991;-88
2022/05/01 05:57:02;;;;;;;;;;;8.00;99.90;;;;;;5014787;28;19962;-89
2022/05/01 05:59:28;;;;;;;;;;;8.10;99.90;;;;;;5032700;28;19958;-86
2022/05/01 06:01:53;;;;;;;;;;;8.10;99.90;;;;;;5036757;28;19924;-86
2022/05/01 06:04:19;;;;;;;;;;;8.10;99.90;;;;;;5044344;28;20367;-86
2022/05/01 06:06:44;;;;;;;;;;;8.20;99.90;;;;;;5029603;28;20398;-86
2022/05/01 06:09:10;;;;;;;;;;;8.30;99.90;;;;;;5046399;28;20364;-83
2022/05/01 06:11:35;;;;;;;;;;;8.30;99.90;;;;;;5051488;28;20388;-85
2022/05/01 06:14:04;;;;;;;;;;;8.40;99.90;;;;;;5036259;28;19917;-85
2022/05/01 06:16:31;;;;;;;;;;;8.50;99.90;;;;;;5035363;28;19909;-85
2022/05/01 06:18:58;;;;;;;;;;;8.50;99.90;;;;;;5049952;28;19919;-86
2022/05/01 06:21:23;;;;;;;;;;;8.60;99.90;;;;;;5025321;28;19923;-85
2022/05/01 06:23:49;;;;;;;;;;;8.60;99.90;;;;;;5030693;28;19924;-86
2022/05/01 06:26:14;;;;;;;;;;;8.60;99.90;;;;;;5020698;28;19921;-85
2022/05/01 06:28:40;;;;;;;;;;;8.60;99.90;;;;;;5045271;28;19917;-84
2022/05/01 06:31:06;;;;;;;;;;;8.70;99.90;;;;;;5055695;28;19915;-86
2022/05/01 06:33:34;;;;;;;;;;;8.70;99.90;;;;;;5053183;28;19918;-85
2022/05/01 06:35:59;;;;;;;;;;;8.80;99.90;;;;;;5039923;28;20007;-87
2022/05/01 06:38:30;;;;;;;;;;;8.80;99.90;;;;;;5048778;28;19960;-89
2022/05/01 06:40:57;;;;;;;;;;;9.00;99.90;;;;;;5037544;28;19912;-86
2022/05/01 06:43:23;;;;;;;;;;;9.10;99.90;;;;;;5051499;28;19921;-87
2022/05/01 06:45:48;;;;;;;;;;;9.10;99.90;;;;;;5040576;28;19952;-87
2022/05/01 06:48:14;;;;;;;;;;;9.30;99.90;;;;;;5033810;28;19913;-86
2022/05/01 06:50:40;;;;;;;;;;;9.30;99.90;;;;;;5040213;28;20279;-87
2022/05/01 06:53:06;;;;;;;;;;;9.40;99.90;;;;;;5044648;28;20007;-86
2022/05/01 06:55:32;;;;;;;;;;;9.40;99.90;;;;;;5051331;28;20418;-87
2022/05/01 06:57:58;;;;;;;;;;;9.50;99.90;;;;;;5051622;28;20018;-86
2022/05/01 07:00:24;;;;;;;;;;;9.60;99.90;;;;;;5051632;23;19933;-86
2022/05/01 07:02:50;;;;;;;;;;;9.70;99.90;;;;;;5035875;28;19928;-87
2022/05/01 07:05:16;;;;;;;;;;;9.70;99.90;;;;;;5070566;28;19912;-87
2022/05/01 07:07:41;;;;;;;;;;;9.80;99.90;;;;;;5052668;28;19908;-87
2022/05/01 07:10:08;;;;;;;;;;;9.90;99.90;;;;;;5030162;28;19921;-87
2022/05/01 07:12:33;;;;;;;;;;;10.00;99.90;;;;;;5032595;28;20378;-87
2022/05/01 07:14:59;;;;;;;;;;;10.10;99.90;;;;;;5032647;28;19998;-86
2022/05/01 07:17:24;;;;;;;;;;;10.30;99.90;;;;;;5032559;28;19978;-87
2022/05/01 07:19:50;;;;;;;;;;;10.50;99.90;;;;;;5031771;28;19913;-88
2022/05/01 07:22:18;;;;;;;;;;;10.60;99.90;;;;;;5031968;28;19971;-87
2022/05/01 07:24:44;;;;;;;;;;;10.80;99.90;;;;;;5032304;28;19917;-84
2022/05/01 07:27:09;;;;;;;;;;;10.90;99.90;;;;;;5019202;28;20148;-85
2022/05/01 07:29:35;;;;;;;;;;;11.20;99.90;;;;;;5031592;28;19913;-85
2022/05/01 07:32:01;;;;;;;;;;;11.40;99.90;;;;;;5051810;28;20396;-85
2022/05/01 07:34:26;;;;;;;;;;;11.60;99.90;;;;;;5065051;28;19935;-85
2022/05/01 07:36:52;;;;;;;;;;;11.70;98.00;;;;;;5049642;28;19935;-84
2022/05/01 07:39:17;;;;;;;;;;;11.80;96.30;;;;;;5029581;28;19924;-84
2022/05/01 07:41:43;;;;;;;;;;;11.80;93.30;;;;;;5047970;28;19921;-84
2022/05/01 07:44:11;;;;;;;;;;;11.90;94.60;;;;;;5048805;28;19971;-84
2022/05/01 07:46:37;;;;;;;;;;;12.10;95.40;;;;;;5031090;28;19923;-85
2022/05/01 07:49:02;;;;;;;;;;;12.40;94.30;;;;;;5048919;28;20301;-85
2022/05/01 07:51:28;;;;;;;;;;;12.50;90.20;;;;;;5048776;28;19917;-84
2022/05/01 07:53:56;;;;;;;;;;;12.70;89.40;;;;;;5038642;28;20032;-84
2022/05/01 07:56:22;;;;;;;;;;;12.80;90.00;;;;;;5044624;28;19970;-84
2022/05/01 07:58:48;;;;;;;;;;;12.90;89.60;;;;;;5052413;28;20007;-84
2022/05/01 08:01:13;;;;;;;;;;;13.00;84.50;;;;;;5032375;28;19952;-85
2022/05/01 08:06:23;;;;;;;;;;;13.20;84.90;;;;;;5049323;28;19932;-85
2022/05/01 08:08:49;;;;;;;;;;;13.40;85.80;;;;;;5034320;28;20325;-84
2022/05/01 08:11:14;;;;;;;;;;;13.50;78.40;;;;;;5034194;28;19971;-85
2022/05/01 08:13:40;;;;;;;;;;;13.50;82.80;;;;;;5039588;28;19923;-84
2022/05/01 08:16:05;;;;;;;;;;;13.60;82.90;;;;;;5052167;28;20397;-84
2022/05/01 08:21:17;;;;;;;;;;;13.90;77.60;;;;;;5049017;28;19948;-84
2022/05/01 08:23:42;;;;;;;;;;;14.00;74.10;;;;;;5035377;28;19916;-84
2022/05/01 08:26:10;;;;;;;;;;;13.80;75.30;;;;;;5033077;28;19926;-85
2022/05/01 08:28:37;;;;;;;;;;;13.60;74.30;;;;;;5071646;28;19939;-85
2022/05/01 08:31:03;;;;;;;;;;;13.60;77.20;;;;;;5052139;28;20376;-84
2022/05/01 08:33:29;;;;;;;;;;;13.70;75.20;;;;;;5071519;28;19920;-84
2022/05/01 08:35:54;;;;;;;;;;;13.70;75.50;;;;;;5068314;28;19913;-84
2022/05/01 08:38:20;;;;;;;;;;;13.80;74.70;;;;;;5053301;28;19917;-84
2022/05/01 08:40:47;;;;;;;;;;;13.90;73.50;;;;;;5049059;28;19916;-84
2022/05/01 08:43:17;;;;;;;;;;;14.00;73.20;;;;;;5047808;28;19920;-85
2022/05/01 08:46:01;;;;;;;;;;;14.20;71.90;;;;;;5049595;28;19913;-85
2022/05/01 08:48:34;;;;;;;;;;;14.30;73.70;;;;;;5039638;28;19923;-84
2022/05/01 08:51:01;;;;;;;;;;;14.40;76.50;;;;;;5049326;28;19982;-84
2022/05/01 08:53:28;;;;;;;;;;;14.60;74.90;;;;;;5051851;28;19928;-84
2022/05/01 08:55:54;;;;;;;;;;;14.50;70.00;;;;;;5053150;28;19968;-84
2022/05/01 08:58:19;;;;;;;;;;;14.50;69.70;;;;;;5034067;28;20024;-84
2022/05/01 09:00:45;;;;;;;;;;;14.30;67.60;;;;;;5034352;28;19921;-84
2022/05/01 09:03:11;;;;;;;;;;;14.20;68.20;;;;;;5054113;28;19974;-84
2022/05/01 09:05:39;;;;;;;;;;;14.30;70.00;;;;;;5052992;28;19966;-84
2022/05/01 09:08:05;;;;;;;;;;;14.40;72.40;;;;;;5034623;28;19921;-84
2022/05/01 09:10:31;;;;;;;;;;;14.40;73.10;;;;;;5066482;28;20065;-84
2022/05/01 09:12:57;;;;;;;;;;;14.50;73.10;;;;;;5039663;28;20440;-85
2022/05/01 09:15:30;;;;;;;;;;;14.60;76.30;;;;;;5045608;28;20113;-84
2022/05/01 09:18:00;;;;;;;;;;;14.50;70.60;;;;;;5047386;28;19974;-84
2022/05/01 09:20:25;;;;;;;;;;;14.30;71.00;;;;;;5034966;28;19920;-84
2022/05/01 09:22:51;;;;;;;;;;;14.30;72.10;;;;;;5034624;28;19970;-84
2022/05/01 09:25:18;;;;;;;;;;;14.40;73.20;;;;;;5050536;28;19913;-85
2022/05/01 09:27:43;;;;;;;;;;;14.70;71.10;;;;;;5034828;28;19923;-84
2022/05/01 09:30:09;;;;;;;;;;;14.70;71.40;;;;;;5065197;28;19909;-84
2022/05/01 09:32:36;;;;;;;;;;;14.80;68.10;;;;;;5059544;28;19986;-84
2022/05/01 09:35:02;;;;;;;;;;;14.80;66.10;;;;;;5034061;28;19913;-84
2022/05/01 09:37:28;;;;;;;;;;;14.70;67.90;;;;;;5050653;28;19916;-84
2022/05/01 09:39:53;;;;;;;;;;;14.70;70.30;;;;;;5047222;28;19935;-83
2022/05/01 09:42:21;;;;;;;;;;;14.90;72.50;;;;;;5022515;28;19921;-83
2022/05/01 09:45:03;;;;;;;;;;;15.00;74.10;;;;;;5052035;28;19968;-84
2022/05/01 09:47:39;;;;;;;;;;;15.30;69.50;;;;;;5039648;28;19913;-84
2022/05/01 09:50:06;;;;;;;;;;;15.70;68.60;;;;;;5040941;28;19987;-88
2022/05/01 09:52:50;;;;;;;;;;;16.00;68.10;;;;;;5034647;28;19917;-87
2022/05/01 09:55:16;;;;;;;;;;;16.40;63.30;;;;;;5066706;28;19924;-88
2022/05/01 09:57:41;;;;;;;;;;;16.50;62.10;;;;;;5043094;28;19912;-87
2022/05/01 10:00:07;;;;;;;;;;;16.60;60.50;;;;;;5043872;28;20463;-87
2022/05/01 10:02:33;;;;;;;;;;;16.30;59.20;;;;;;5047658;28;20003;-87
2022/05/01 10:05:03;;;;;;;;;;;16.00;61.50;;;;;;5033460;28;20356;-87
2022/05/01 10:07:36;;;;;;;;;;;15.80;62.50;;;;;;5046862;28;19920;-87
2022/05/01 10:10:11;;;;;;;;;;;15.80;64.80;;;;;;5048882;28;20350;-87
2022/05/01 10:12:42;;;;;;;;;;;15.90;64.50;;;;;;5042724;28;19960;-87
2022/05/01 10:15:08;;;;;;;;;;;16.10;65.10;;;;;;5053730;28;19916;-87
2022/05/01 10:17:34;;;;;;;;;;;16.20;64.00;;;;;;5042948;28;20309;-87
2022/05/01 10:20:02;;;;;;;;;;;16.30;61.70;;;;;;5032981;28;19921;-87
2022/05/01 10:22:27;;;;;;;;;;;16.60;62.70;;;;;;5057551;28;19916;-87
2022/05/01 10:24:53;;;;;;;;;;;16.90;61.30;;;;;;5041703;28;19913;-88
2022/05/01 10:27:18;;;;;;;;;;;16.90;59.70;;;;;;5050512;28;19928;-88
2022/05/01 10:32:47;;;;;;;;;;;17.40;60.60;;;;;;5051357;28;19919;-88
2022/05/01 10:35:19;;;;;;;;;;;17.90;57.60;;;;;;5049961;28;19948;-87
2022/05/01 10:38:00;;;;;;;;;;;17.90;56.90;;;;;;5053653;28;19909;-88
2022/05/01 10:40:30;;;;;;;;;;;17.70;57.60;;;;;;5054500;28;19920;-88
2022/05/01 10:42:56;;;;;;;;;;;17.50;59.80;;;;;;5049358;28;19912;-88
2022/05/01 10:45:21;;;;;;;;;;;17.50;61.00;;;;;;5039687;28;20004;-87
2022/05/01 10:47:54;;;;;;;;;;;17.50;59.50;;;;;;5053310;28;20436;-88
2022/05/01 10:50:27;;;;;;;;;;;17.50;59.30;;;;;;5032526;28;19913;-87
2022/05/01 10:53:02;;;;;;;;;;;17.50;59.10;;;;;;5049625;28;19909;-87
2022/05/01 10:55:40;;;;;;;;;;;17.30;59.90;;;;;;5065642;28;19924;-87
2022/05/01 10:58:18;;;;;;;;;;;17.20;61.60;;;;;;5058306;28;19935;-87
2022/05/01 11:00:44;;;;;;;;;;;17.00;61.00;;;;;;5051535;28;20011;-87
2022/05/01 11:03:24;;;;;;;;;;;16.90;62.20;;;;;;5032190;28;19923;-87
2022/05/01 11:05:54;;;;;;;;;;;16.90;61.10;;;;;;5033685;28;19917;-87
2022/05/01 11:08:23;;;;;;;;;;;16.70;59.10;;;;;;5032263;28;20377;-88
2022/05/01 11:10:50;;;;;;;;;;;16.60;59.80;;;;;;5065622;28;20269;-87
2022/05/01 11:13:19;;;;;;;;;;;16.50;62.20;;;;;;5032684;28;20356;-88
2022/05/01 11:15:49;;;;;;;;;;;16.40;63.80;;;;;;5033098;28;19920;-88
2022/05/01 11:18:14;;;;;;;;;;;16.40;64.10;;;;;;5032348;28;19924;-87
2022/05/01 11:20:40;;;;;;;;;;;16.30;63.10;;;;;;5049309;28;19913;-88
2022/05/01 11:23:24;;;;;;;;;;;16.20;62.40;;;;;;5049386;28;19921;-88
2022/05/01 11:25:49;;;;;;;;;;;16.30;64.10;;;;;;5049260;28;19984;-88
2022/05/01 11:28:33;;;;;;;;;;;16.50;65.20;;;;;;5050051;28;19939;-87
2022/05/01 11:30:59;;;;;;;;;;;16.70;65.40;;;;;;5050436;28;19908;-88
2022/05/01 11:33:24;;;;;;;;;;;17.10;63.30;;;;;;5049371;28;20297;-88
2022/05/01 11:35:54;;;;;;;;;;;17.40;60.90;;;;;;5049274;28;20373;-87
2022/05/01 11:38:20;;;;;;;;;;;17.90;60.40;;;;;;5031839;28;19986;-88
2022/05/01 11:40:53;;;;;;;;;;;18.30;58.50;;;;;;5048806;28;19913;-88
2022/05/01 11:43:19;;;;;;;;;;;18.40;58.60;;;;;;5032318;28;19935;-88
2022/05/01 11:45:46;;;;;;;;;;;18.30;58.10;;;;;;5049342;28;19916;-87
2022/05/01 11:48:12;;;;;;;;;;;18.00;57.90;;;;;;5048798;28;19917;-88
2022/05/01 11:50:38;;;;;;;;;;;17.50;59.30;;;;;;5048875;28;19913;-87
2022/05/01 11:53:09;;;;;;;;;;;17.10;59.50;;;;;;5049003;28;19923;-87
2022/05/01 12:04:18;;;;;;;;;;;16.60;64.70;;;;;;5050210;28;20327;-88
2022/05/01 12:06:43;;;;;;;;;;;16.60;65.90;;;;;;5049042;28;20361;-87
2022/05/01 12:09:08;;;;;;;;;;;16.80;61.80;;;;;;5048447;28;19913;-88
2022/05/01 12:11:34;;;;;;;;;;;16.90;61.00;;;;;;5048785;28;20589;-88
2022/05/01 12:14:03;;;;;;;;;;;17.10;59.90;;;;;;5048580;28;19921;-87
2022/05/01 12:16:29;;;;;;;;;;;17.40;59.00;;;;;;5048451;28;20034;-87
2022/05/01 12:18:56;;;;;;;;;;;17.80;58.50;;;;;;5031578;28;19979;-88
2022/05/01 12:21:28;;;;;;;;;;;18.10;59.30;;;;;;5048781;28;19967;-87
2022/05/01 12:23:53;;;;;;;;;;;18.30;57.20;;;;;;5048670;28;19925;-88
2022/05/01 12:26:19;;;;;;;;;;;18.10;56.10;;;;;;5032076;28;20042;-88
2022/05/01 12:28:46;;;;;;;;;;;18.00;57.60;;;;;;5047397;28;20666;-87
2022/05/01 12:31:12;;;;;;;;;;;17.80;57.30;;;;;;5049844;28;20015;-87
2022/05/01 12:33:37;;;;;;;;;;;17.50;58.80;;;;;;5048627;28;20312;-87
2022/05/01 12:36:03;;;;;;;;;;;17.30;57.50;;;;;;5031964;28;19908;-87
2022/05/01 12:38:29;;;;;;;;;;;17.20;57.10;;;;;;5048278;28;19927;-88
2022/05/01 12:43:53;;;;;;;;;;;16.90;59.00;;;;;;5050140;28;19923;-87
2022/05/01 12:46:21;;;;;;;;;;;16.80;61.40;;;;;;5048846;28;19908;-88
2022/05/01 12:48:46;;;;;;;;;;;16.90;60.70;;;;;;5031309;28;19978;-88
2022/05/01 12:51:13;;;;;;;;;;;16.90;60.20;;;;;;5048418;28;19917;-87
2022/05/01 12:53:38;;;;;;;;;;;16.90;59.40;;;;;;5051343;28;19960;-88
2022/05/01 12:56:15;;;;;;;;;;;16.80;61.80;;;;;;5035274;28;19964;-87
2022/05/01 12:58:41;;;;;;;;;;;16.70;62.60;;;;;;5034994;28;19919;-87
2022/05/01 13:01:08;;;;;;;;;;;16.70;64.40;;;;;;5060096;22;19972;-84
2022/05/01 13:03:37;;;;;;;;;;;16.70;63.70;;;;;;5053113;28;19917;-84
2022/05/01 13:06:07;;;;;;;;;;;16.90;62.50;;;;;;5035143;28;19916;-84
2022/05/01 13:08:38;;;;;;;;;;;17.10;62.40;;;;;;5052263;28;20438;-85
2022/05/01 13:11:16;;;;;;;;;;;17.10;63.20;;;;;;5043065;28;20381;-85
2022/05/01 13:13:49;;;;;;;;;;;17.20;61.90;;;;;;5054899;28;19954;-85
2022/05/01 13:16:16;;;;;;;;;;;17.30;61.40;;;;;;5054884;28;19916;-85
2022/05/01 13:18:42;;;;;;;;;;;17.20;60.50;;;;;;5054155;28;19908;-84
2022/05/01 13:21:08;;;;;;;;;;;16.80;60.30;;;;;;5072455;28;20003;-84
2022/05/01 13:23:33;;;;;;;;;;;16.50;61.80;;;;;;5054359;28;20415;-84
2022/05/01 13:26:01;;;;;;;;;;;16.30;65.00;;;;;;5072527;28;19955;-84
2022/05/01 13:28:27;;;;;;;;;;;16.20;64.20;;;;;;5072284;28;20406;-85
2022/05/01 13:30:53;;;;;;;;;;;16.10;64.60;;;;;;5054367;28;19912;-85
2022/05/01 13:33:18;;;;;;;;;;;16.00;65.40;;;;;;5037894;28;20372;-85
2022/05/01 13:35:43;;;;;;;;;;;16.10;64.10;;;;;;5037939;28;19912;-85
2022/05/01 13:38:09;;;;;;;;;;;16.10;63.10;;;;;;5037668;28;19952;-85
2022/05/01 13:46:03;;;;;;;;;;;15.90;64.60;;;;;;5057276;28;19920;-84
2022/05/01 13:48:28;;;;;;;;;;;15.70;64.80;;;;;;5053825;28;19912;-84
2022/05/01 13:50:55;;;;;;;;;;;15.70;65.70;;;;;;5037321;28;20364;-85
2022/05/01 13:53:20;;;;;;;;;;;15.50;66.40;;;;;;5054279;28;20269;-85
2022/05/01 13:55:46;;;;;;;;;;;15.40;70.00;;;;;;5071644;28;19920;-86
2022/05/01 13:58:12;;;;;;;;;;;15.40;70.00;;;;;;5053643;28;19916;-89
2022/05/01 14:00:37;;;;;;;;;;;15.40;70.60;;;;;;5055240;28;19923;-87
2022/05/01 14:03:07;;;;;;;;;;;15.50;69.60;;;;;;5050142;28;20019;-88
2022/05/01 14:05:33;;;;;;;;;;;15.50;70.60;;;;;;5034356;28;20303;-87
2022/05/01 14:07:59;;;;;;;;;;;15.60;69.00;;;;;;5053564;28;19917;-87
2022/05/01 14:10:24;;;;;;;;;;;15.60;69.00;;;;;;5070171;28;19916;-87
2022/05/01 14:12:50;;;;;;;;;;;15.80;67.90;;;;;;5072116;28;20265;-89
2022/05/01 14:15:15;;;;;;;;;;;15.80;69.50;;;;;;5070954;28;19916;-87
2022/05/01 14:17:41;;;;;;;;;;;15.80;69.50;;;;;;5051205;28;19979;-87
2022/05/01 14:20:08;;;;;;;;;;;15.80;69.00;;;;;;5047076;28;20304;-88
2022/05/01 14:22:34;;;;;;;;;;;15.80;71.20;;;;;;5071915;28;19917;-88
2022/05/01 14:25:01;;;;;;;;;;;15.80;70.60;;;;;;5070351;28;19916;-87
2022/05/01 14:27:27;;;;;;;;;;;15.70;69.50;;;;;;5070685;28;19920;-89
2022/05/01 14:29:52;;;;;;;;;;;15.80;71.30;;;;;;5052933;28;20301;-88
2022/05/01 14:32:22;;;;;;;;;;;15.80;70.00;;;;;;5069658;28;20015;-87
2022/05/01 14:34:50;;;;;;;;;;;15.90;70.50;;;;;;5071099;28;20365;-87
2022/05/01 14:37:26;;;;;;;;;;;16.00;70.20;;;;;;5070594;28;19939;-88
2022/05/01 14:39:54;;;;;;;;;;;16.10;70.60;;;;;;5068406;28;20464;-85
2022/05/01 14:42:21;;;;;;;;;;;16.30;68.80;;;;;;5069194;28;19984;-87
2022/05/01 14:44:51;;;;;;;;;;;16.40;69.40;;;;;;5077993;28;19939;-87
2022/05/01 14:47:24;;;;;;;;;;;16.40;66.80;;;;;;5069470;28;19964;-86
2022/05/01 14:49:50;;;;;;;;;;;16.40;68.00;;;;;;5069994;28;19919;-86
2022/05/01 14:52:16;;;;;;;;;;;16.40;69.90;;;;;;5069259;28;19912;-86
2022/05/01 14:54:43;;;;;;;;;;;16.50;66.00;;;;;;5069412;28;20046;-85
2022/05/01 14:57:10;;;;;;;;;;;16.60;66.50;;;;;;5052639;28;19958;-85
2022/05/01 15:07:55;;;;;;;;;;;16.90;66.70;;;;;;5078324;28;19938;-87
2022/05/01 15:10:21;;;;;;;;;;;16.90;66.00;;;;;;5057718;28;20007;-89
2022/05/01 15:12:47;;;;;;;;;;;16.90;65.80;;;;;;5073497;28;19908;-89